sensor_id;sensor_type;location;lat;lon;timestamp;pressure;altitude;pressure_sealevel;temperature;humidity
55490;BME280;44029;52.956;4.772;2023-02-13T00:02:24;103946.16;;;8.29;100.00
55490;BME280;44029;52.956;4.772;2023-02-13T00:04:49;103934.75;;;8.33;100.00
55490;BME280;44029;52.956;4.772;2023-02-13T00:07:15;103933.03;;;8.32;100.00
55490;BME280;44029;52.956;4.772;2023-02-13T00:09:40;103945.69;;;8.33;100.00
55490;BME280;44029;52.956;4.772;2023-02-13T00:12:06;103948.25;;;8.35;100.00
55490;BME280;44029;52.956;4.772;2023-02-13T00:14:39;103937.41;;;8.43;100.00
55490;BME280;44029;52.956;4.772;2023-02-13T00:17:05;103937.19;;;8.37;100.00
55490;BME280;44029;52.956;4.772;2023-02-13T00:19:30;103939.56;;;8.40;100.00
55490;BME280;44029;52.956;4.772;2023-02-13T00:21:56;103933.72;;;8.35;100.00
55490;BME280;44029;52.956;4.772;2023-02-13T00:24:22;103932.28;;;8.22;100.00
55490;BME280;44029;52.956;4.772;2023-02-13T00:26:47;103939.78;;;8.20;100.00
55490;BME280;44029;52.956;4.772;2023-02-13T00:29:12;103939.63;;;8.22;100.00
55490;BME280;44029;52.956;4.772;2023-02-13T00:31:38;103928.72;;;8.22;100.00
55490;BME280;44029;52.956;4.772;2023-02-13T00:34:03;103925.09;;;8.21;100.00
55490;BME280;44029;52.956;4.772;2023-02-13T00:36:28;103914.56;;;8.26;100.00
55490;BME280;44029;52.956;4.772;2023-02-13T00:38:54;103916.91;;;8.21;100.00
55490;BME280;44029;52.956;4.772;2023-02-13T00:41:20;103909.94;;;8.27;100.00
55490;BME280;44029;52.956;4.772;2023-02-13T00:43:46;103914.94;;;8.31;100.00
55490;BME280;44029;52.956;4.772;2023-02-13T00:46:12;103914.59;;;8.35;100.00
55490;BME280;44029;52.956;4.772;2023-02-13T00:48:38;103908.09;;;8.27;100.00
55490;BME280;44029;52.956;4.772;2023-02-13T00:51:04;103906.41;;;8.35;100.00
55490;BME280;44029;52.956;4.772;2023-02-13T00:53:30;103911.03;;;8.34;100.00
55490;BME280;44029;52.956;4.772;2023-02-13T00:55:56;103910.50;;;8.30;100.00
55490;BME280;44029;52.956;4.772;2023-02-13T00:58:21;103906.06;;;8.29;100.00
55490;BME280;44029;52.956;4.772;2023-02-13T01:00:47;103906.53;;;8.25;100.00
55490;BME280;44029;52.956;4.772;2023-02-13T01:03:14;103901.41;;;8.22;100.00
55490;BME280;44029;52.956;4.772;2023-02-13T01:05:40;103908.28;;;8.08;100.00
55490;BME280;44029;52.956;4.772;2023-02-13T01:08:06;103903.25;;;8.21;100.00
55490;BME280;44029;52.956;4.772;2023-02-13T01:10:32;103908.00;;;8.19;100.00
55490;BME280;44029;52.956;4.772;2023-02-13T01:12:57;103900.53;;;8.21;100.00
55490;BME280;44029;52.956;4.772;2023-02-13T01:15:22;103907.22;;;8.27;100.00
55490;BME280;44029;52.956;4.772;2023-02-13T01:17:48;103909.16;;;8.35;100.00
55490;BME280;44029;52.956;4.772;2023-02-13T01:20:14;103910.19;;;8.33;100.00
55490;BME280;44029;52.956;4.772;2023-02-13T01:22:39;103909.34;;;8.33;100.00
55490;BME280;44029;52.956;4.772;2023-02-13T01:25:06;103916.66;;;8.32;100.00
55490;BME280;44029;52.956;4.772;2023-02-13T01:27:32;103907.75;;;8.30;100.00
55490;BME280;44029;52.956;4.772;2023-02-13T01:29:58;103903.88;;;8.33;100.00
55490;BME280;44029;52.956;4.772;2023-02-13T01:32:23;103912.84;;;8.25;100.00
55490;BME280;44029;52.956;4.772;2023-02-13T01:34:49;103911.44;;;8.21;100.00
55490;BME280;44029;52.956;4.772;2023-02-13T01:37:14;103904.59;;;8.17;100.00
55490;BME280;44029;52.956;4.772;2023-02-13T01:39:40;103905.66;;;8.24;100.00
55490;BME280;44029;52.956;4.772;2023-02-13T01:42:14;103901.81;;;8.35;100.00
55490;BME280;44029;52.956;4.772;2023-02-13T01:44:54;103899.16;;;8.43;100.00
55490;BME280;44029;52.956;4.772;2023-02-13T01:50:03;103907.28;;;8.35;100.00
55490;BME280;44029;52.956;4.772;2023-02-13T01:52:29;103907.38;;;8.25;100.00
55490;BME280;44029;52.956;4.772;2023-02-13T01:54:55;103905.19;;;8.29;100.00
55490;BME280;44029;52.956;4.772;2023-02-13T01:57:22;103902.53;;;8.37;100.00
55490;BME280;44029;52.956;4.772;2023-02-13T02:00:02;103908.69;;;8.39;100.00
55490;BME280;44029;52.956;4.772;2023-02-13T02:02:33;103901.13;;;8.33;100.00
55490;BME280;44029;52.956;4.772;2023-02-13T02:05:02;103901.59;;;8.28;100.00
55490;BME280;44029;52.956;4.772;2023-02-13T02:07:29;103903.63;;;8.26;100.00
55490;BME280;44029;52.956;4.772;2023-02-13T02:09:59;103887.13;;;8.36;100.00
55490;BME280;44029;52.956;4.772;2023-02-13T02:15:30;103897.47;;;8.24;100.00
55490;BME280;44029;52.956;4.772;2023-02-13T02:17:55;103888.63;;;8.30;100.00
55490;BME280;44029;52.956;4.772;2023-02-13T02:20:44;103891.50;;;8.47;100.00
55490;BME280;44029;52.956;4.772;2023-02-13T02:44:47;103879.59;;;8.30;100.00
55490;BME280;44029;52.956;4.772;2023-02-13T02:47:34;103867.31;;;8.34;100.00
55490;BME280;44029;52.956;4.772;2023-02-13T02:53:28;103864.44;;;8.36;100.00
55490;BME280;44029;52.956;4.772;2023-02-13T02:56:06;103868.94;;;8.19;100.00
55490;BME280;44029;52.956;4.772;2023-02-13T02:58:44;103860.22;;;7.97;100.00
55490;BME280;44029;52.956;4.772;2023-02-13T03:01:31;103865.38;;;8.00;100.00
55490;BME280;44029;52.956;4.772;2023-02-13T03:04:27;103866.84;;;8.12;100.00
55490;BME280;44029;52.956;4.772;2023-02-13T03:07:16;103864.97;;;8.13;100.00
55490;BME280;44029;52.956;4.772;2023-02-13T03:09:46;103865.81;;;8.13;100.00
55490;BME280;44029;52.956;4.772;2023-02-13T03:12:39;103869.25;;;8.16;100.00
55490;BME280;44029;52.956;4.772;2023-02-13T03:15:27;103870.44;;;8.13;100.00
55490;BME280;44029;52.956;4.772;2023-02-13T03:17:53;103870.63;;;8.20;100.00
55490;BME280;44029;52.956;4.772;2023-02-13T03:21:08;103867.31;;;8.34;100.00
55490;BME280;44029;52.956;4.772;2023-02-13T03:24:06;103867.00;;;8.37;100.00
55490;BME280;44029;52.956;4.772;2023-02-13T03:32:31;103860.91;;;8.17;100.00
55490;BME280;44029;52.956;4.772;2023-02-13T03:40:56;103867.53;;;7.88;100.00
55490;BME280;44029;52.956;4.772;2023-02-13T03:46:13;103863.31;;;8.20;100.00
55490;BME280;44029;52.956;4.772;2023-02-13T03:48:40;103860.78;;;8.01;100.00
55490;BME280;44029;52.956;4.772;2023-02-13T03:51:32;103859.16;;;8.16;100.00
55490;BME280;44029;52.956;4.772;2023-02-13T03:54:05;103862.28;;;8.21;100.00
55490;BME280;44029;52.956;4.772;2023-02-13T03:56:31;103856.44;;;8.16;100.00
55490;BME280;44029;52.956;4.772;2023-02-13T03:59:22;103863.66;;;7.99;100.00
55490;BME280;44029;52.956;4.772;2023-02-13T04:02:02;103856.69;;;8.05;100.00
55490;BME280;44029;52.956;4.772;2023-02-13T04:04:37;103860.31;;;8.05;100.00
55490;BME280;44029;52.956;4.772;2023-02-13T04:07:09;103861.53;;;8.11;100.00
55490;BME280;44029;52.956;4.772;2023-02-13T04:09:39;103855.19;;;8.10;100.00
55490;BME280;44029;52.956;4.772;2023-02-13T04:12:26;103853.97;;;8.05;100.00
55490;BME280;44029;52.956;4.772;2023-02-13T04:15:03;103850.81;;;8.18;100.00
55490;BME280;44029;52.956;4.772;2023-02-13T04:17:35;103852.66;;;8.09;100.00
55490;BME280;44029;52.956;4.772;2023-02-13T04:20:02;103857.19;;;8.00;100.00
55490;BME280;44029;52.956;4.772;2023-02-13T04:22:27;103854.78;;;7.97;100.00
55490;BME280;44029;52.956;4.772;2023-02-13T04:24:53;103850.50;;;7.94;100.00
55490;BME280;44029;52.956;4.772;2023-02-13T04:27:18;103859.31;;;7.88;100.00
55490;BME280;44029;52.956;4.772;2023-02-13T04:29:44;103856.50;;;7.98;100.00
55490;BME280;44029;52.956;4.772;2023-02-13T04:32:10;103857.72;;;8.04;100.00
55490;BME280;44029;52.956;4.772;2023-02-13T04:34:36;103857.03;;;8.02;100.00
55490;BME280;44029;52.956;4.772;2023-02-13T04:37:02;103856.25;;;7.91;100.00
55490;BME280;44029;52.956;4.772;2023-02-13T04:39:27;103858.16;;;7.73;100.00
55490;BME280;44029;52.956;4.772;2023-02-13T04:41:52;103867.72;;;7.77;100.00
55490;BME280;44029;52.956;4.772;2023-02-13T04:44:17;103851.59;;;7.84;100.00
55490;BME280;44029;52.956;4.772;2023-02-13T04:46:43;103854.41;;;7.74;100.00
55490;BME280;44029;52.956;4.772;2023-02-13T04:49:09;103848.63;;;7.95;100.00
55490;BME280;44029;52.956;4.772;2023-02-13T04:51:35;103860.09;;;7.81;100.00
55490;BME280;44029;52.956;4.772;2023-02-13T04:54:00;103860.97;;;7.81;100.00
55490;BME280;44029;52.956;4.772;2023-02-13T04:56:26;103867.44;;;7.80;100.00
55490;BME280;44029;52.956;4.772;2023-02-13T04:58:51;103855.03;;;7.86;100.00
55490;BME280;44029;52.956;4.772;2023-02-13T05:01:17;103853.13;;;7.86;100.00
55490;BME280;44029;52.956;4.772;2023-02-13T05:03:43;103863.38;;;7.84;100.00
55490;BME280;44029;52.956;4.772;2023-02-13T05:06:08;103861.81;;;7.82;100.00
55490;BME280;44029;52.956;4.772;2023-02-13T05:08:33;103858.25;;;7.63;100.00
55490;BME280;44029;52.956;4.772;2023-02-13T05:10:59;103862.91;;;7.71;100.00
55490;BME280;44029;52.956;4.772;2023-02-13T05:13:24;103857.31;;;7.72;100.00
55490;BME280;44029;52.956;4.772;2023-02-13T05:15:50;103855.28;;;7.74;100.00
55490;BME280;44029;52.956;4.772;2023-02-13T05:18:17;103860.09;;;7.81;100.00
55490;BME280;44029;52.956;4.772;2023-02-13T05:20:42;103855.03;;;7.86;100.00
55490;BME280;44029;52.956;4.772;2023-02-13T05:23:12;103851.66;;;7.92;100.00
55490;BME280;44029;52.956;4.772;2023-02-13T05:25:50;103864.31;;;7.75;100.00
55490;BME280;44029;52.956;4.772;2023-02-13T05:28:15;103858.53;;;7.60;100.00
55490;BME280;44029;52.956;4.772;2023-02-13T05:30:59;103853.19;;;7.68;100.00
55490;BME280;44029;52.956;4.772;2023-02-13T05:33:25;103867.53;;;7.70;100.00
55490;BME280;44029;52.956;4.772;2023-02-13T05:35:51;103862.50;;;7.66;100.00
55490;BME280;44029;52.956;4.772;2023-02-13T05:38:16;103861.72;;;7.73;100.00
55490;BME280;44029;52.956;4.772;2023-02-13T05:40:41;103859.19;;;7.72;100.00
55490;BME280;44029;52.956;4.772;2023-02-13T05:43:07;103848.03;;;7.65;100.00
55490;BME280;44029;52.956;4.772;2023-02-13T05:45:32;103854.03;;;7.69;100.00
55490;BME280;44029;52.956;4.772;2023-02-13T05:47:57;103857.69;;;7.78;100.00
55490;BME280;44029;52.956;4.772;2023-02-13T05:50:23;103850.59;;;7.85;100.00
55490;BME280;44029;52.956;4.772;2023-02-13T05:52:48;103857.69;;;7.78;100.00
55490;BME280;44029;52.956;4.772;2023-02-13T05:55:13;103854.97;;;7.60;100.00
55490;BME280;44029;52.956;4.772;2023-02-13T05:57:39;103864.63;;;7.72;100.00
55490;BME280;44029;52.956;4.772;2023-02-13T06:00:05;103860.88;;;7.73;100.00
55490;BME280;44029;52.956;4.772;2023-02-13T06:02:30;103852.94;;;7.80;100.00
55490;BME280;44029;52.956;4.772;2023-02-13T06:04:56;103861.56;;;7.75;100.00
55490;BME280;44029;52.956;4.772;2023-02-13T06:07:21;103864.84;;;7.79;100.00
55490;BME280;44029;52.956;4.772;2023-02-13T06:09:46;103863.84;;;7.80;100.00
55490;BME280;44029;52.956;4.772;2023-02-13T06:12:12;103866.34;;;7.73;100.00
55490;BME280;44029;52.956;4.772;2023-02-13T06:14:37;103867.38;;;7.72;100.00
55490;BME280;44029;52.956;4.772;2023-02-13T06:17:02;103870.25;;;7.70;100.00
55490;BME280;44029;52.956;4.772;2023-02-13T06:19:28;103870.94;;;7.72;100.00
55490;BME280;44029;52.956;4.772;2023-02-13T06:21:53;103866.88;;;7.59;100.00
55490;BME280;44029;52.956;4.772;2023-02-13T06:24:19;103872.25;;;7.50;100.00
55490;BME280;44029;52.956;4.772;2023-02-13T06:26:44;103872.72;;;7.46;100.00
55490;BME280;44029;52.956;4.772;2023-02-13T06:29:09;103874.00;;;7.51;100.00
55490;BME280;44029;52.956;4.772;2023-02-13T06:31:36;103883.31;;;7.49;100.00
55490;BME280;44029;52.956;4.772;2023-02-13T06:34:02;103878.56;;;7.51;100.00
55490;BME280;44029;52.956;4.772;2023-02-13T06:36:27;103875.63;;;7.44;100.00
55490;BME280;44029;52.956;4.772;2023-02-13T06:38:53;103884.50;;;7.46;100.00
55490;BME280;44029;52.956;4.772;2023-02-13T06:41:18;103881.31;;;7.51;100.00
55490;BME280;44029;52.956;4.772;2023-02-13T06:43:43;103877.56;;;7.52;100.00
55490;BME280;44029;52.956;4.772;2023-02-13T06:46:09;103876.63;;;7.43;100.00
55490;BME280;44029;52.956;4.772;2023-02-13T06:48:34;103882.56;;;7.39;100.00
55490;BME280;44029;52.956;4.772;2023-02-13T06:51:00;103895.41;;;7.46;100.00
55490;BME280;44029;52.956;4.772;2023-02-13T06:53:28;103895.28;;;7.48;100.00
55490;BME280;44029;52.956;4.772;2023-02-13T06:55:55;103894.78;;;7.52;100.00
55490;BME280;44029;52.956;4.772;2023-02-13T06:58:22;103895.88;;;7.42;100.00
55490;BME280;44029;52.956;4.772;2023-02-13T07:00:49;103903.19;;;7.41;100.00
55490;BME280;44029;52.956;4.772;2023-02-13T07:03:15;103910.91;;;7.28;100.00
55490;BME280;44029;52.956;4.772;2023-02-13T07:05:41;103918.47;;;7.34;100.00
55490;BME280;44029;52.956;4.772;2023-02-13T07:08:08;103918.31;;;7.35;100.00
55490;BME280;44029;52.956;4.772;2023-02-13T07:10:39;103926.41;;;7.45;100.00
55490;BME280;44029;52.956;4.772;2023-02-13T07:13:04;103923.41;;;7.21;100.00
55490;BME280;44029;52.956;4.772;2023-02-13T07:15:31;103925.53;;;7.27;100.00
55490;BME280;44029;52.956;4.772;2023-02-13T07:17:57;103922.38;;;7.22;100.00
55490;BME280;44029;52.956;4.772;2023-02-13T07:20:23;103926.84;;;7.23;100.00
55490;BME280;44029;52.956;4.772;2023-02-13T07:22:49;103928.47;;;7.15;100.00
55490;BME280;44029;52.956;4.772;2023-02-13T07:25:15;103930.56;;;7.22;100.00
55490;BME280;44029;52.956;4.772;2023-02-13T07:27:40;103932.94;;;7.34;100.00
55490;BME280;44029;52.956;4.772;2023-02-13T07:30:06;103932.50;;;7.39;100.00
55490;BME280;44029;52.956;4.772;2023-02-13T07:32:31;103935.06;;;7.41;100.00
55490;BME280;44029;52.956;4.772;2023-02-13T07:34:57;103934.81;;;7.34;100.00
55490;BME280;44029;52.956;4.772;2023-02-13T07:37:22;103930.38;;;7.33;100.00
55490;BME280;44029;52.956;4.772;2023-02-13T07:39:48;103935.31;;;7.20;100.00
55490;BME280;44029;52.956;4.772;2023-02-13T07:42:13;103930.03;;;7.18;100.00
55490;BME280;44029;52.956;4.772;2023-02-13T07:44:38;103925.84;;;7.24;100.00
55490;BME280;44029;52.956;4.772;2023-02-13T07:47:04;103931.94;;;7.35;100.00
55490;BME280;44029;52.956;4.772;2023-02-13T07:49:29;103938.59;;;7.51;100.00
55490;BME280;44029;52.956;4.772;2023-02-13T07:51:56;103929.03;;;7.65;100.00
55490;BME280;44029;52.956;4.772;2023-02-13T07:54:22;103934.50;;;7.65;100.00
55490;BME280;44029;52.956;4.772;2023-02-13T07:56:47;103935.09;;;7.59;100.00
55490;BME280;44029;52.956;4.772;2023-02-13T07:59:12;103931.22;;;7.61;100.00
55490;BME280;44029;52.956;4.772;2023-02-13T08:01:38;103933.47;;;7.48;100.00
55490;BME280;44029;52.956;4.772;2023-02-13T08:04:03;103932.44;;;7.49;100.00
55490;BME280;44029;52.956;4.772;2023-02-13T08:06:28;103921.53;;;7.49;100.00
55490;BME280;44029;52.956;4.772;2023-02-13T08:08:54;103927.53;;;7.52;100.00
55490;BME280;44029;52.956;4.772;2023-02-13T08:11:39;103928.00;;;7.48;100.00
55490;BME280;44029;52.956;4.772;2023-02-13T08:14:24;103934.09;;;7.60;100.00
55490;BME280;44029;52.956;4.772;2023-02-13T08:16:51;103933.69;;;7.54;100.00
55490;BME280;44029;52.956;4.772;2023-02-13T08:19:16;103925.03;;;7.41;100.00
55490;BME280;44029;52.956;4.772;2023-02-13T08:21:43;103923.47;;;7.57;100.00
55490;BME280;44029;52.956;4.772;2023-02-13T08:24:08;103914.13;;;7.59;100.00
55490;BME280;44029;52.956;4.772;2023-02-13T08:26:34;103917.88;;;7.58;100.00
55490;BME280;44029;52.956;4.772;2023-02-13T08:28:59;103926.69;;;7.52;100.00
55490;BME280;44029;52.956;4.772;2023-02-13T08:31:25;103921.53;;;7.67;100.00
55490;BME280;44029;52.956;4.772;2023-02-13T08:33:51;103929.81;;;7.57;100.00
55490;BME280;44029;52.956;4.772;2023-02-13T08:36:16;103918.34;;;7.53;100.00
55490;BME280;44029;52.956;4.772;2023-02-13T08:38:45;103932.31;;;7.68;100.00
55490;BME280;44029;52.956;4.772;2023-02-13T08:41:10;103935.41;;;7.55;100.00
55490;BME280;44029;52.956;4.772;2023-02-13T08:43:36;103930.34;;;7.61;100.00
55490;BME280;44029;52.956;4.772;2023-02-13T08:46:01;103929.97;;;7.55;100.00
55490;BME280;44029;52.956;4.772;2023-02-13T08:48:27;103934.72;;;7.53;100.00
55490;BME280;44029;52.956;4.772;2023-02-13T08:50:52;103940.88;;;7.55;100.00
55490;BME280;44029;52.956;4.772;2023-02-13T08:53:17;103930.19;;;7.62;100.00
55490;BME280;44029;52.956;4.772;2023-02-13T08:55:53;103934.50;;;7.65;100.00
55490;BME280;44029;52.956;4.772;2023-02-13T08:58:18;103935.97;;;7.59;100.00
55490;BME280;44029;52.956;4.772;2023-02-13T09:00:44;103932.88;;;7.72;100.00
55490;BME280;44029;52.956;4.772;2023-02-13T09:03:09;103932.16;;;7.70;100.00
55490;BME280;44029;52.956;4.772;2023-02-13T09:05:35;103938.53;;;7.61;100.00
55490;BME280;44029;52.956;4.772;2023-02-13T09:08:01;103932.88;;;7.72;100.00
55490;BME280;44029;52.956;4.772;2023-02-13T09:10:27;103936.66;;;7.61;100.00
55490;BME280;44029;52.956;4.772;2023-02-13T09:12:53;103932.34;;;7.59;100.00
55490;BME280;44029;52.956;4.772;2023-02-13T09:15:19;103930.28;;;7.70;100.00
55490;BME280;44029;52.956;4.772;2023-02-13T09:17:44;103928.94;;;7.74;100.00
55490;BME280;44029;52.956;4.772;2023-02-13T09:20:10;103926.53;;;7.89;100.00
55490;BME280;44029;52.956;4.772;2023-02-13T09:22:41;103924.03;;;7.78;100.00
55490;BME280;44029;52.956;4.772;2023-02-13T09:25:07;103925.13;;;7.85;100.00
55490;BME280;44029;52.956;4.772;2023-02-13T09:27:33;103922.16;;;7.97;100.00
55490;BME280;44029;52.956;4.772;2023-02-13T09:30:00;103928.25;;;7.90;100.00
55490;BME280;44029;52.956;4.772;2023-02-13T09:32:25;103920.13;;;7.99;100.00
55490;BME280;44029;52.956;4.772;2023-02-13T09:34:51;103927.38;;;8.08;100.00
55490;BME280;44029;52.956;4.772;2023-02-13T09:37:16;103930.16;;;8.16;100.00
55490;BME280;44029;52.956;4.772;2023-02-13T09:39:42;103929.56;;;8.04;100.00
55490;BME280;44029;52.956;4.772;2023-02-13T09:42:18;103930.41;;;8.23;100.00
55490;BME280;44029;52.956;4.772;2023-02-13T09:44:47;103930.25;;;8.06;100.00
55490;BME280;44029;52.956;4.772;2023-02-13T09:47:33;103915.75;;;8.06;100.00
55490;BME280;44029;52.956;4.772;2023-02-13T09:50:20;103921.78;;;8.09;100.00
55490;BME280;44029;52.956;4.772;2023-02-13T09:52:48;103918.25;;;7.99;100.00
55490;BME280;44029;52.956;4.772;2023-02-13T09:55:17;103923.47;;;8.10;100.00
55490;BME280;44029;52.956;4.772;2023-02-13T10:00:28;103903.63;;;8.26;100.00
55490;BME280;44029;52.956;4.772;2023-02-13T10:05:31;103906.63;;;8.15;100.00
55490;BME280;44029;52.956;4.772;2023-02-13T10:14:17;103902.13;;;8.32;100.00
55490;BME280;44029;52.956;4.772;2023-02-13T10:16:46;103904.72;;;8.33;100.00
55490;BME280;44029;52.956;4.772;2023-02-13T10:21:51;103894.31;;;8.55;100.00
55490;BME280;44029;52.956;4.772;2023-02-13T10:24:29;103896.78;;;8.66;100.00
55490;BME280;44029;52.956;4.772;2023-02-13T10:26:58;103894.09;;;8.48;100.00
55490;BME280;44029;52.956;4.772;2023-02-13T10:29:41;103896.16;;;8.55;100.00
55490;BME280;44029;52.956;4.772;2023-02-13T10:32:34;103894.03;;;8.66;100.00
55490;BME280;44029;52.956;4.772;2023-02-13T10:35:20;103892.78;;;8.87;100.00
55490;BME280;44029;52.956;4.772;2023-02-13T10:37:47;103889.28;;;8.77;100.00
55490;BME280;44029;52.956;4.772;2023-02-13T10:40:16;103896.13;;;8.81;100.00
55490;BME280;44029;52.956;4.772;2023-02-13T10:42:52;103903.13;;;9.18;100.00
55490;BME280;44029;52.956;4.772;2023-02-13T10:48:51;103887.44;;;9.20;100.00
55490;BME280;44029;52.956;4.772;2023-02-13T10:57:03;103873.72;;;9.12;100.00
55490;BME280;44029;52.956;4.772;2023-02-13T11:02:21;103878.88;;;9.23;100.00
55490;BME280;44029;52.956;4.772;2023-02-13T11:04:48;103880.25;;;9.19;100.00
55490;BME280;44029;52.956;4.772;2023-02-13T11:07:17;103874.63;;;9.20;100.00
55490;BME280;44029;52.956;4.772;2023-02-13T11:09:46;103876.19;;;9.31;100.00
55490;BME280;44029;52.956;4.772;2023-02-13T11:12:31;103874.81;;;9.43;100.00
55490;BME280;44029;52.956;4.772;2023-02-13T11:15:01;103887.78;;;9.25;100.00
55490;BME280;44029;52.956;4.772;2023-02-13T11:17:30;103887.13;;;9.39;100.00
55490;BME280;44029;52.956;4.772;2023-02-13T11:19:59;103877.91;;;9.40;100.00
55490;BME280;44029;52.956;4.772;2023-02-13T11:22:29;103886.97;;;9.41;100.00
55490;BME280;44029;52.956;4.772;2023-02-13T11:25:00;103877.25;;;9.46;100.00
55490;BME280;44029;52.956;4.772;2023-02-13T11:27:31;103870.41;;;9.51;100.00
55490;BME280;44029;52.956;4.772;2023-02-13T11:30:06;103869.53;;;9.58;100.00
55490;BME280;44029;52.956;4.772;2023-02-13T11:33:03;103849.88;;;9.55;100.00
55490;BME280;44029;52.956;4.772;2023-02-13T11:35:35;103855.69;;;9.52;100.00
55490;BME280;44029;52.956;4.772;2023-02-13T11:40:50;103847.34;;;9.78;100.00
55490;BME280;44029;52.956;4.772;2023-02-13T11:43:29;103849.53;;;9.66;100.00
55490;BME280;44029;52.956;4.772;2023-02-13T11:48:27;103836.50;;;9.35;100.00
55490;BME280;44029;52.956;4.772;2023-02-13T11:50:53;103844.41;;;9.55;100.00
55490;BME280;44029;52.956;4.772;2023-02-13T11:53:26;103837.06;;;9.63;100.00
55490;BME280;44029;52.956;4.772;2023-02-13T11:56:11;103829.38;;;9.83;100.00
55490;BME280;44029;52.956;4.772;2023-02-13T11:58:38;103835.50;;;9.69;100.00
55490;BME280;44029;52.956;4.772;2023-02-13T12:03:59;103825.41;;;10.02;100.00
55490;BME280;44029;52.956;4.772;2023-02-13T12:06:25;103820.78;;;9.62;100.00
55490;BME280;44029;52.956;4.772;2023-02-13T12:08:50;103819.94;;;9.70;100.00
55490;BME280;44029;52.956;4.772;2023-02-13T12:11:40;103811.91;;;9.93;100.00
55490;BME280;44029;52.956;4.772;2023-02-13T12:14:13;103807.81;;;9.72;100.00
55490;BME280;44029;52.956;4.772;2023-02-13T12:16:50;103804.88;;;9.90;100.00
55490;BME280;44029;52.956;4.772;2023-02-13T12:19:23;103805.72;;;9.41;100.00
55490;BME280;44029;52.956;4.772;2023-02-13T12:22:04;103807.09;;;9.45;100.00
55490;BME280;44029;52.956;4.772;2023-02-13T12:32:20;103801.13;;;9.66;100.00
55490;BME280;44029;52.956;4.772;2023-02-13T12:40:34;103798.03;;;9.86;100.00
55490;BME280;44029;52.956;4.772;2023-02-13T12:45:50;103795.81;;;9.81;100.00
55490;BME280;44029;52.956;4.772;2023-02-13T12:51:30;103791.38;;;9.89;100.00
55490;BME280;44029;52.956;4.772;2023-02-13T12:59:15;103774.59;;;9.83;100.00
55490;BME280;44029;52.956;4.772;2023-02-13T13:05:04;103767.91;;;9.94;100.00
55490;BME280;44029;52.956;4.772;2023-02-13T13:10:25;103772.50;;;9.94;100.00
55490;BME280;44029;52.956;4.772;2023-02-13T13:21:25;103767.00;;;10.10;100.00
55490;BME280;44029;52.956;4.772;2023-02-13T13:26:37;103755.50;;;10.23;100.00
55490;BME280;44029;52.956;4.772;2023-02-13T13:29:44;103754.47;;;10.40;100.00
55490;BME280;44029;52.956;4.772;2023-02-13T13:32:16;103751.19;;;10.29;100.00
55490;BME280;44029;52.956;4.772;2023-02-13T13:34:44;103748.81;;;10.34;100.00
55490;BME280;44029;52.956;4.772;2023-02-13T13:39:47;103745.63;;;10.05;100.00
55490;BME280;44029;52.956;4.772;2023-02-13T13:47:45;103735.56;;;9.98;100.00
55490;BME280;44029;52.956;4.772;2023-02-13T13:50:21;103733.97;;;10.12;100.00
55490;BME280;44029;52.956;4.772;2023-02-13T13:53:12;103734.81;;;10.20;100.00
55490;BME280;44029;52.956;4.772;2023-02-13T13:58:46;103729.72;;;10.09;100.00
55490;BME280;44029;52.956;4.772;2023-02-13T14:09:38;103720.94;;;10.22;100.00
55490;BME280;44029;52.956;4.772;2023-02-13T14:14:57;103719.88;;;10.23;100.00
55490;BME280;44029;52.956;4.772;2023-02-13T14:20:40;103718.13;;;10.47;100.00
55490;BME280;44029;52.956;4.772;2023-02-13T14:31:26;103697.53;;;10.51;100.00
55490;BME280;44029;52.956;4.772;2023-02-13T14:36:27;103696.84;;;10.49;100.00
55490;BME280;44029;52.956;4.772;2023-02-13T14:39:15;103694.44;;;10.54;100.00
55490;BME280;44029;52.956;4.772;2023-02-13T14:41:56;103706.16;;;10.39;100.00
55490;BME280;44029;52.956;4.772;2023-02-13T14:44:35;103694.00;;;10.42;100.00
55490;BME280;44029;52.956;4.772;2023-02-13T14:47:20;103705.06;;;10.49;100.00
55490;BME280;44029;52.956;4.772;2023-02-13T14:49:48;103696.34;;;10.53;100.00
55490;BME280;44029;52.956;4.772;2023-02-13T14:52:17;103694.25;;;10.55;100.00
55490;BME280;44029;52.956;4.772;2023-02-13T14:54:49;103692.13;;;10.66;100.00
55490;BME280;44029;52.956;4.772;2023-02-13T14:57:16;103698.09;;;10.46;100.00
55490;BME280;44029;52.956;4.772;2023-02-13T14:59:47;103693.75;;;10.52;100.00
55490;BME280;44029;52.956;4.772;2023-02-13T15:02:21;103694.47;;;10.45;100.00
55490;BME280;44029;52.956;4.772;2023-02-13T15:04:57;103691.63;;;10.62;100.00
55490;BME280;44029;52.956;4.772;2023-02-13T15:07:30;103695.47;;;10.53;100.00
55490;BME280;44029;52.956;4.772;2023-02-13T15:10:01;103693.13;;;10.41;100.00
55490;BME280;44029;52.956;4.772;2023-02-13T15:12:34;103691.59;;;10.39;100.00
55490;BME280;44029;52.956;4.772;2023-02-13T15:15:16;103692.13;;;10.34;100.00
55490;BME280;44029;52.956;4.772;2023-02-13T15:17:46;103692.38;;;10.16;100.00
55490;BME280;44029;52.956;4.772;2023-02-13T15:22:44;103697.47;;;10.19;100.00
55490;BME280;44029;52.956;4.772;2023-02-13T15:25:28;103694.63;;;10.04;100.00
55490;BME280;44029;52.956;4.772;2023-02-13T15:27:56;103700.63;;;9.92;100.00
55490;BME280;44029;52.956;4.772;2023-02-13T15:30:26;103696.34;;;9.97;100.00
55490;BME280;44029;52.956;4.772;2023-02-13T15:35:25;103681.88;;;9.64;100.00
55490;BME280;44029;52.956;4.772;2023-02-13T15:37:52;103689.47;;;9.37;100.00
55490;BME280;44029;52.956;4.772;2023-02-13T15:40:26;103687.41;;;9.39;100.00
55490;BME280;44029;52.956;4.772;2023-02-13T15:42:53;103683.81;;;9.22;100.00
55490;BME280;44029;52.956;4.772;2023-02-13T15:45:20;103682.97;;;9.14;100.00